createdAt,value
2018-07-26T00:02:00.740Z,28.30
2018-07-26T00:04:29.044Z,28.30
2018-07-26T00:06:57.256Z,28.20
2018-07-26T00:09:25.531Z,28.20
2018-07-26T00:11:53.702Z,28.20
2018-07-26T00:14:21.912Z,28.10
2018-07-26T00:16:50.135Z,28.10
2018-07-26T00:19:18.431Z,28.10
2018-07-26T00:21:46.705Z,28.10
2018-07-26T00:24:14.982Z,28.10
2018-07-26T00:26:43.233Z,28.00
2018-07-26T00:29:11.445Z,28.00
2018-07-26T00:31:39.746Z,28.00
2018-07-26T00:34:07.975Z,28.00
2018-07-26T00:36:36.234Z,28.00
2018-07-26T00:39:07.832Z,28.00
2018-07-26T00:41:36.222Z,27.90
2018-07-26T00:44:04.566Z,27.90
2018-07-26T00:46:32.776Z,27.80
2018-07-26T00:49:01.055Z,27.80
2018-07-26T00:51:29.355Z,27.80
2018-07-26T00:53:57.618Z,27.80
2018-07-26T00:56:25.833Z,27.80
2018-07-26T00:58:54.067Z,27.80
2018-07-26T01:01:23.831Z,27.70
2018-07-26T01:03:52.063Z,27.70
2018-07-26T01:06:20.357Z,27.70
2018-07-26T01:08:48.611Z,27.70
2018-07-26T01:11:16.859Z,27.60
2018-07-26T01:13:45.082Z,27.60
2018-07-26T01:16:13.303Z,27.60
2018-07-26T01:18:41.511Z,27.60
2018-07-26T01:21:09.994Z,27.50
2018-07-26T01:23:38.710Z,27.50
2018-07-26T01:26:06.991Z,27.50
2018-07-26T01:28:35.182Z,27.40
2018-07-26T01:31:03.433Z,27.40
2018-07-26T01:36:00.903Z,27.40
2018-07-26T01:38:29.148Z,27.40
2018-07-26T01:40:57.458Z,27.30
2018-07-26T01:44:04.042Z,27.30
2018-07-26T01:46:32.305Z,27.30
2018-07-26T01:49:00.568Z,27.30
2018-07-26T01:51:28.846Z,27.30
2018-07-26T01:53:57.133Z,27.20
2018-07-26T01:56:25.390Z,27.20
2018-07-26T01:58:53.634Z,27.20
2018-07-26T02:01:21.858Z,27.20
2018-07-26T02:03:50.081Z,27.20
2018-07-26T02:06:18.331Z,27.10
2018-07-26T02:08:46.537Z,27.10
2018-07-26T02:11:14.751Z,27.00
2018-07-26T02:13:43.046Z,27.00
2018-07-26T02:16:11.308Z,26.90
2018-07-26T02:18:39.518Z,26.90
2018-07-26T02:21:07.840Z,26.90
2018-07-26T02:23:36.159Z,26.90
2018-07-26T02:26:04.434Z,26.90
2018-07-26T02:28:32.666Z,26.90
2018-07-26T02:31:00.978Z,26.90
2018-07-26T02:33:30.077Z,26.80
2018-07-26T02:35:58.323Z,26.80
2018-07-26T02:38:26.589Z,26.80
2018-07-26T02:40:55.075Z,26.70
2018-07-26T02:43:23.383Z,26.70
2018-07-26T02:45:51.664Z,26.70
2018-07-26T02:50:47.914Z,26.60
2018-07-26T02:53:16.288Z,26.60
2018-07-26T02:55:44.531Z,26.50
2018-07-26T02:58:12.778Z,26.50
2018-07-26T03:00:41.944Z,26.50
2018-07-26T03:03:10.172Z,26.40
2018-07-26T03:05:38.425Z,26.40
2018-07-26T03:08:06.640Z,26.40
2018-07-26T03:10:34.870Z,26.30
2018-07-26T03:13:03.082Z,26.30
2018-07-26T03:15:31.391Z,26.30
2018-07-26T03:17:59.656Z,26.30
2018-07-26T03:20:27.915Z,26.30
2018-07-26T03:23:06.818Z,26.30
2018-07-26T03:25:35.043Z,26.30
2018-07-26T03:28:03.253Z,26.20
2018-07-26T03:30:31.460Z,26.20
2018-07-26T03:32:59.689Z,26.20
2018-07-26T03:35:27.903Z,26.10
2018-07-26T03:37:56.111Z,26.10
2018-07-26T03:40:24.359Z,26.10
2018-07-26T03:42:52.608Z,26.10
2018-07-26T03:45:21.316Z,26.10
2018-07-26T03:47:49.564Z,26.10
2018-07-26T03:50:17.777Z,26.10
2018-07-26T03:52:46.040Z,26.10
2018-07-26T03:55:14.231Z,26.10
2018-07-26T03:57:42.473Z,26.10
2018-07-26T04:00:10.713Z,26.10
2018-07-26T04:02:38.973Z,26.10
2018-07-26T04:05:07.248Z,26.10
2018-07-26T04:07:35.426Z,26.10
2018-07-26T04:10:03.719Z,26.10
2018-07-26T04:14:59.887Z,26.00
2018-07-26T04:17:28.121Z,26.00
2018-07-26T04:19:56.403Z,26.00
2018-07-26T04:22:24.634Z,26.00
2018-07-26T04:24:52.870Z,26.00
2018-07-26T04:27:21.149Z,26.10
2018-07-26T04:29:49.362Z,26.00
2018-07-26T04:32:17.618Z,26.00
2018-07-26T04:34:45.834Z,25.90
2018-07-26T04:37:14.070Z,25.90
2018-07-26T04:39:42.362Z,25.90
2018-07-26T04:42:10.562Z,25.90
2018-07-26T04:44:38.799Z,25.90
2018-07-26T04:47:07.233Z,26.00
2018-07-26T04:49:35.428Z,26.10
2018-07-26T04:52:03.687Z,26.20
2018-07-26T04:54:31.925Z,26.30
2018-07-26T04:57:00.139Z,26.30
2018-07-26T04:59:28.719Z,26.40
2018-07-26T05:01:56.937Z,26.40
2018-07-26T05:04:25.190Z,26.40
2018-07-26T05:06:53.456Z,26.40
2018-07-26T05:09:21.662Z,26.50
2018-07-26T05:11:49.938Z,26.60
2018-07-26T05:14:18.146Z,26.70
2018-07-26T05:16:46.421Z,26.70
2018-07-26T05:19:14.621Z,26.80
2018-07-26T05:21:42.837Z,26.80
2018-07-26T05:24:11.092Z,26.70
2018-07-26T05:26:39.670Z,26.70
2018-07-26T05:29:07.994Z,26.70
2018-07-26T05:31:36.225Z,26.70
2018-07-26T05:36:32.439Z,26.80
2018-07-26T05:39:00.655Z,26.80
2018-07-26T05:41:29.087Z,26.80
2018-07-26T05:43:57.286Z,26.90
2018-07-26T05:46:25.930Z,27.00
2018-07-26T05:48:54.191Z,27.10
2018-07-26T05:51:22.397Z,27.10
2018-07-26T05:53:50.633Z,27.20
2018-07-26T05:56:18.930Z,27.20
2018-07-26T05:58:47.238Z,27.20
2018-07-26T06:01:15.529Z,27.30
2018-07-26T06:03:46.872Z,27.40
2018-07-26T06:06:15.156Z,27.50
2018-07-26T06:08:43.390Z,27.60
2018-07-26T06:11:11.657Z,27.60
2018-07-26T06:13:39.888Z,27.60
2018-07-26T06:16:08.144Z,27.60
2018-07-26T06:18:36.367Z,27.60
2018-07-26T06:21:04.582Z,27.70
2018-07-26T06:23:32.856Z,27.70
2018-07-26T06:26:01.042Z,27.70
2018-07-26T06:28:29.378Z,27.60
2018-07-26T06:30:57.556Z,27.60
2018-07-26T06:33:25.797Z,27.60
2018-07-26T06:35:53.974Z,27.60
2018-07-26T06:38:22.167Z,27.60
2018-07-26T06:40:50.391Z,27.70
2018-07-26T06:43:18.639Z,27.70
2018-07-26T06:45:46.841Z,27.80
2018-07-26T06:48:15.041Z,28.00
2018-07-26T06:50:43.244Z,28.10
2018-07-26T06:53:11.679Z,28.20
2018-07-26T06:55:39.816Z,28.30
2018-07-26T06:58:08.043Z,28.40
2018-07-26T07:00:36.261Z,28.50
2018-07-26T07:03:04.499Z,28.60
2018-07-26T07:05:32.787Z,28.60
2018-07-26T07:08:00.991Z,28.70
2018-07-26T07:10:29.191Z,28.90
2018-07-26T07:12:57.407Z,29.00
2018-07-26T07:15:25.642Z,29.20
2018-07-26T07:17:53.958Z,29.30
2018-07-26T07:20:22.265Z,29.30
2018-07-26T07:22:50.463Z,29.30
2018-07-26T07:25:18.705Z,29.30
2018-07-26T07:27:46.994Z,29.40
2018-07-26T07:30:15.169Z,29.50
2018-07-26T07:32:43.371Z,29.90
2018-07-26T07:35:11.591Z,30.20
2018-07-26T07:37:40.286Z,30.30
2018-07-26T07:40:09.354Z,30.30
2018-07-26T07:42:37.967Z,30.30
2018-07-26T07:45:06.988Z,30.30
2018-07-26T07:47:35.243Z,30.20
2018-07-26T07:50:03.471Z,30.10
2018-07-26T07:52:31.672Z,30.00
2018-07-26T07:54:59.881Z,30.00
2018-07-26T07:57:28.134Z,30.00
2018-07-26T07:59:56.423Z,30.00
2018-07-26T08:02:24.550Z,30.10
2018-07-26T08:04:52.980Z,30.10
2018-07-26T08:07:21.206Z,30.20
2018-07-26T08:09:49.461Z,30.30
2018-07-26T08:12:17.720Z,30.50
2018-07-26T08:14:46.051Z,30.80
2018-07-26T08:17:14.514Z,31.20
2018-07-26T08:19:42.762Z,31.80
2018-07-26T08:22:11.027Z,32.90
2018-07-26T08:24:39.349Z,34.70
2018-07-26T08:27:07.603Z,36.80
2018-07-26T08:29:35.850Z,38.70
2018-07-26T08:32:04.198Z,40.10
2018-07-26T08:34:32.508Z,41.30
2018-07-26T08:37:00.714Z,42.20
2018-07-26T08:39:29.015Z,43.00
2018-07-26T08:41:57.329Z,43.40
2018-07-26T08:44:25.648Z,43.90
2018-07-26T08:46:53.935Z,44.20
2018-07-26T08:49:22.174Z,44.40
2018-07-26T08:51:50.424Z,44.70
2018-07-26T08:54:18.686Z,44.70
2018-07-26T08:56:46.922Z,44.80
2018-07-26T08:59:15.158Z,44.50
2018-07-26T09:01:43.398Z,44.40
2018-07-26T09:04:11.798Z,44.10
2018-07-26T09:06:40.031Z,43.60
2018-07-26T09:09:10.643Z,42.30
2018-07-26T09:11:38.993Z,40.90
2018-07-26T09:14:07.263Z,39.70
2018-07-26T09:16:35.586Z,38.70
2018-07-26T09:19:03.886Z,37.90
2018-07-26T09:21:32.118Z,37.20
2018-07-26T09:24:00.676Z,36.70
2018-07-26T09:26:28.915Z,36.30
2018-07-26T09:28:57.188Z,36.00
2018-07-26T09:31:25.444Z,35.70
2018-07-26T09:33:53.706Z,35.50
2018-07-26T09:36:21.916Z,35.30
2018-07-26T09:38:50.161Z,35.10
2018-07-26T09:41:18.429Z,34.90
2018-07-26T09:43:46.690Z,34.80
2018-07-26T09:46:15.249Z,34.70
2018-07-26T09:48:43.754Z,34.70
2018-07-26T09:51:12.000Z,34.60
2018-07-26T09:53:40.240Z,34.60
2018-07-26T09:56:08.530Z,34.70
2018-07-26T09:58:36.754Z,34.60
2018-07-26T10:01:39.928Z,34.60
2018-07-26T10:04:08.174Z,34.60
2018-07-26T10:06:36.450Z,34.60
2018-07-26T10:09:08.373Z,34.60
2018-07-26T10:11:36.738Z,34.60
2018-07-26T10:14:05.052Z,34.60
2018-07-26T10:16:33.299Z,34.70
2018-07-26T10:19:01.591Z,34.70
2018-07-26T10:21:29.816Z,34.80
2018-07-26T10:23:58.077Z,34.80
2018-07-26T10:26:26.302Z,34.90
2018-07-26T10:28:54.498Z,34.90
2018-07-26T10:31:25.870Z,34.90
2018-07-26T10:33:54.533Z,34.90
2018-07-26T10:36:23.075Z,35.00
2018-07-26T10:38:51.432Z,35.00
2018-07-26T10:41:19.714Z,35.10
2018-07-26T10:46:16.566Z,35.10
2018-07-26T10:48:44.796Z,35.10
2018-07-26T10:51:13.018Z,35.20
2018-07-26T10:56:09.266Z,35.30
2018-07-26T10:58:37.522Z,35.40
2018-07-26T11:01:05.762Z,35.40
2018-07-26T11:03:34.027Z,35.40
2018-07-26T11:06:02.275Z,35.40
2018-07-26T11:08:30.490Z,35.50
2018-07-26T11:10:58.731Z,35.50
2018-07-26T11:13:26.991Z,35.50
2018-07-26T11:15:55.210Z,35.60
2018-07-26T11:18:23.441Z,35.70
2018-07-26T11:20:51.650Z,35.80
2018-07-26T11:23:19.995Z,35.90
2018-07-26T11:25:48.247Z,35.90
2018-07-26T11:28:16.490Z,36.00
2018-07-26T11:30:44.727Z,36.00
2018-07-26T11:33:12.972Z,36.10
2018-07-26T11:35:41.275Z,36.20
2018-07-26T11:38:09.498Z,36.30
2018-07-26T11:40:37.742Z,36.40
2018-07-26T11:43:06.028Z,36.40
2018-07-26T11:45:34.266Z,36.50
2018-07-26T11:48:02.468Z,36.50
2018-07-26T11:50:30.763Z,36.50
2018-07-26T11:52:58.994Z,36.30
2018-07-26T11:55:27.247Z,36.20
2018-07-26T11:57:55.494Z,36.10
2018-07-26T12:00:23.727Z,36.30
2018-07-26T12:05:19.933Z,36.50
2018-07-26T12:07:48.151Z,36.60
2018-07-26T12:10:16.378Z,36.70
2018-07-26T12:12:44.636Z,36.80
2018-07-26T12:15:12.851Z,36.80
2018-07-26T12:17:41.233Z,36.80
2018-07-26T12:20:09.462Z,36.80
2018-07-26T12:22:37.679Z,36.90
2018-07-26T12:25:05.920Z,37.00
2018-07-26T12:27:34.119Z,36.90
2018-07-26T12:30:02.350Z,36.70
2018-07-26T12:32:30.555Z,36.40
2018-07-26T12:34:58.758Z,36.30
2018-07-26T12:37:27.058Z,36.40
2018-07-26T12:42:23.282Z,36.60
2018-07-26T12:44:51.498Z,36.50
2018-07-26T12:47:19.721Z,36.30
2018-07-26T12:49:48.014Z,36.10
2018-07-26T12:52:17.645Z,36.10
2018-07-26T12:54:45.939Z,36.00
2018-07-26T12:57:14.140Z,36.20
2018-07-26T12:59:42.354Z,36.40
2018-07-26T13:02:10.632Z,36.50
2018-07-26T13:04:38.886Z,36.70
2018-07-26T13:07:07.325Z,36.70
2018-07-26T13:09:36.013Z,36.70
2018-07-26T13:12:04.343Z,36.80
2018-07-26T13:14:32.607Z,36.90
2018-07-26T13:17:00.824Z,36.80
2018-07-26T13:19:29.074Z,36.80
2018-07-26T13:21:57.527Z,37.00
2018-07-26T13:24:25.788Z,37.00
2018-07-26T13:26:54.062Z,37.10
2018-07-26T13:29:22.376Z,37.20
2018-07-26T13:31:50.608Z,37.20
2018-07-26T13:34:18.864Z,37.20
2018-07-26T13:36:47.166Z,37.20
2018-07-26T13:39:15.379Z,37.30
2018-07-26T13:41:43.611Z,37.40
2018-07-26T13:44:11.846Z,37.40
2018-07-26T13:46:40.109Z,37.50
2018-07-26T13:49:08.375Z,37.50
2018-07-26T13:51:36.665Z,37.50
2018-07-26T13:54:05.059Z,37.60
2018-07-26T13:56:33.286Z,37.60
2018-07-26T13:59:01.483Z,37.60
2018-07-26T14:01:29.742Z,37.60
2018-07-26T14:03:57.975Z,37.60
2018-07-26T14:06:26.294Z,37.60
2018-07-26T14:08:54.636Z,37.60
2018-07-26T14:11:22.980Z,37.60
2018-07-26T14:16:19.150Z,37.70
2018-07-26T14:18:47.364Z,37.70
2018-07-26T14:21:15.667Z,37.70
2018-07-26T14:23:43.916Z,37.80
2018-07-26T14:26:13.213Z,37.80
2018-07-26T14:28:41.957Z,38.00
2018-07-26T14:31:11.169Z,38.10
2018-07-26T14:33:40.092Z,38.20
2018-07-26T14:36:08.317Z,38.20
2018-07-26T14:38:36.656Z,38.20
2018-07-26T14:41:04.940Z,38.30
2018-07-26T14:43:33.199Z,38.20
2018-07-26T14:46:01.440Z,38.20
2018-07-26T14:48:29.643Z,38.20
2018-07-26T14:50:57.923Z,38.30
2018-07-26T14:53:26.165Z,38.30
2018-07-26T14:55:54.386Z,38.40
2018-07-26T14:58:22.616Z,38.40
2018-07-26T15:00:51.230Z,38.40
2018-07-26T15:03:19.465Z,38.30
2018-07-26T15:05:47.878Z,38.30
2018-07-26T15:08:16.124Z,38.30
2018-07-26T15:10:44.425Z,38.30
2018-07-26T15:13:12.630Z,38.20
2018-07-26T15:15:40.901Z,38.20
2018-07-26T15:18:09.164Z,38.20
2018-07-26T15:20:37.467Z,38.10
2018-07-26T15:23:05.694Z,38.10
2018-07-26T15:25:33.906Z,38.10
2018-07-26T15:28:02.188Z,38.00
2018-07-26T15:30:30.524Z,38.00
2018-07-26T15:32:58.841Z,38.00
2018-07-26T15:35:27.001Z,38.10
2018-07-26T15:37:55.238Z,38.10
2018-07-26T15:40:23.483Z,38.00
2018-07-26T15:42:51.778Z,38.00
2018-07-26T15:45:20.033Z,38.10
2018-07-26T15:47:48.464Z,38.10
2018-07-26T15:50:17.116Z,38.20
2018-07-26T15:52:45.330Z,38.20
2018-07-26T15:55:13.606Z,38.20
2018-07-26T15:57:41.895Z,38.20
2018-07-26T16:00:11.570Z,38.30
2018-07-26T16:02:39.940Z,38.20
2018-07-26T16:05:08.387Z,38.30
2018-07-26T16:07:37.020Z,38.10
2018-07-26T16:10:05.583Z,37.80
2018-07-26T16:15:02.830Z,37.40
2018-07-26T16:17:31.347Z,37.20
2018-07-26T16:19:59.852Z,37.20
2018-07-26T16:22:28.373Z,36.90
2018-07-26T16:24:56.577Z,36.80
2018-07-26T16:27:25.517Z,36.50
2018-07-26T16:29:53.779Z,36.30
2018-07-26T16:32:22.018Z,36.20
2018-07-26T16:34:50.245Z,36.00
2018-07-26T16:37:18.547Z,35.90
2018-07-26T16:39:47.683Z,35.70
2018-07-26T16:42:15.876Z,35.60
2018-07-26T16:44:44.097Z,35.50
2018-07-26T16:47:12.319Z,35.40
2018-07-26T16:49:40.574Z,35.30
2018-07-26T16:52:08.879Z,35.30
2018-07-26T16:54:37.114Z,35.30
2018-07-26T16:57:05.632Z,35.30
2018-07-26T16:59:33.863Z,35.30
2018-07-26T17:02:02.176Z,35.20
2018-07-26T17:04:30.428Z,35.10
2018-07-26T17:06:58.707Z,35.00
2018-07-26T17:09:26.933Z,34.80
2018-07-26T17:11:55.173Z,34.70
2018-07-26T17:14:23.431Z,34.60
2018-07-26T17:16:51.676Z,34.50
2018-07-26T17:19:19.973Z,34.50
2018-07-26T17:24:16.434Z,34.40
2018-07-26T17:26:44.673Z,34.40
2018-07-26T17:29:13.037Z,34.40
2018-07-26T17:31:41.190Z,34.40
2018-07-26T17:34:09.532Z,34.30
2018-07-26T17:36:37.762Z,34.30
2018-07-26T17:39:07.775Z,34.30
2018-07-26T17:41:36.003Z,34.20
2018-07-26T17:44:04.255Z,34.20
2018-07-26T17:46:32.536Z,34.20
2018-07-26T17:49:00.807Z,34.10
2018-07-26T17:51:29.122Z,34.00
2018-07-26T17:53:57.395Z,34.00
2018-07-26T17:56:25.639Z,33.90
2018-07-26T17:58:54.003Z,33.80
2018-07-26T18:01:22.273Z,33.90
2018-07-26T18:03:50.548Z,33.80
2018-07-26T18:06:18.895Z,33.80
2018-07-26T18:08:47.126Z,33.70
2018-07-26T18:11:15.408Z,33.70
2018-07-26T18:13:43.716Z,33.70
2018-07-26T18:16:11.943Z,33.70
2018-07-26T18:18:40.226Z,33.60
2018-07-26T18:21:08.491Z,33.60
2018-07-26T18:23:36.890Z,33.60
2018-07-26T18:26:05.208Z,33.60
2018-07-26T18:28:33.395Z,33.60
2018-07-26T18:31:01.697Z,33.50
2018-07-26T18:33:29.942Z,33.50
2018-07-26T18:35:58.144Z,33.40
2018-07-26T18:38:27.263Z,33.40
2018-07-26T18:40:55.463Z,33.40
2018-07-26T18:43:23.825Z,33.30
2018-07-26T18:45:52.071Z,33.30
2018-07-26T18:48:20.314Z,33.20
2018-07-26T18:50:48.566Z,33.20
2018-07-26T18:53:17.167Z,33.20
2018-07-26T18:55:45.422Z,33.20
2018-07-26T18:58:13.737Z,33.10
2018-07-26T19:00:42.035Z,33.10
2018-07-26T19:03:10.275Z,33.00
2018-07-26T19:05:38.609Z,33.00
2018-07-26T19:08:07.154Z,33.00
2018-07-26T19:10:35.515Z,33.00
2018-07-26T19:13:03.739Z,32.90
2018-07-26T19:15:32.702Z,32.90
2018-07-26T19:18:00.939Z,32.90
2018-07-26T19:20:29.186Z,32.80
2018-07-26T19:22:57.537Z,32.70
2018-07-26T19:25:28.295Z,32.70
2018-07-26T19:27:57.114Z,32.70
2018-07-26T19:30:25.371Z,32.60
2018-07-26T19:32:53.588Z,32.60
2018-07-26T19:35:21.884Z,32.50
2018-07-26T19:37:50.060Z,32.40
2018-07-26T19:40:18.333Z,32.40
2018-07-26T19:42:46.619Z,32.30
2018-07-26T19:45:14.867Z,32.20
2018-07-26T19:47:43.095Z,32.20
2018-07-26T19:50:11.387Z,32.10
2018-07-26T19:52:39.730Z,32.10
2018-07-26T19:55:09.782Z,32.10
2018-07-26T19:57:38.043Z,32.10
2018-07-26T20:00:07.357Z,32.00
2018-07-26T20:02:36.371Z,32.10
2018-07-26T20:05:05.165Z,32.00
2018-07-26T20:07:33.402Z,32.00
2018-07-26T20:10:01.700Z,32.00
2018-07-26T20:12:29.907Z,32.00
2018-07-26T20:14:58.141Z,32.00
2018-07-26T20:17:26.390Z,32.00
2018-07-26T20:19:54.674Z,32.00
2018-07-26T20:22:22.941Z,32.00
2018-07-26T20:24:51.235Z,32.00
2018-07-26T20:27:19.553Z,31.90
2018-07-26T20:29:47.795Z,31.90
2018-07-26T20:32:16.072Z,31.90
2018-07-26T20:34:44.431Z,31.80
2018-07-26T20:37:12.884Z,31.80
2018-07-26T20:39:41.106Z,31.70
2018-07-26T20:42:09.429Z,31.70
2018-07-26T20:44:37.635Z,31.60
2018-07-26T20:47:05.970Z,31.60
2018-07-26T20:49:34.187Z,31.50
2018-07-26T20:52:02.455Z,31.40
2018-07-26T20:54:30.662Z,31.40
2018-07-26T20:56:58.878Z,31.40
2018-07-26T20:59:27.099Z,31.30
2018-07-26T21:01:55.351Z,31.30
2018-07-26T21:04:23.601Z,31.20
2018-07-26T21:06:51.819Z,31.10
2018-07-26T21:09:20.065Z,31.10
2018-07-26T21:11:48.394Z,31.00
2018-07-26T21:14:16.670Z,31.00
2018-07-26T21:16:44.870Z,31.00
2018-07-26T21:19:13.107Z,30.90
2018-07-26T21:21:41.386Z,30.90
2018-07-26T21:24:09.683Z,30.80
2018-07-26T21:26:37.909Z,30.80
2018-07-26T21:29:06.122Z,30.70
2018-07-26T21:31:34.391Z,30.70
2018-07-26T21:34:02.600Z,30.70
2018-07-26T21:36:30.898Z,30.70
2018-07-26T21:38:59.099Z,30.60
2018-07-26T21:41:27.340Z,30.50
2018-07-26T21:43:55.587Z,30.50
2018-07-26T21:46:23.862Z,30.50
2018-07-26T21:48:52.141Z,30.40
2018-07-26T21:51:20.647Z,30.40
2018-07-26T21:53:48.882Z,30.30
2018-07-26T21:58:45.061Z,30.30
2018-07-26T22:01:13.292Z,30.30
2018-07-26T22:03:41.531Z,30.20
2018-07-26T22:06:09.726Z,30.20
2018-07-26T22:08:38.028Z,30.20
2018-07-26T22:11:06.232Z,30.10
2018-07-26T22:13:34.447Z,30.10
2018-07-26T22:16:02.726Z,30.10
2018-07-26T22:18:30.900Z,30.00
2018-07-26T22:20:59.098Z,30.00
2018-07-26T22:23:27.332Z,29.90
2018-07-26T22:25:55.554Z,29.90
2018-07-26T22:28:23.865Z,29.90
2018-07-26T22:30:52.085Z,29.80
2018-07-26T22:33:20.326Z,29.80
2018-07-26T22:35:48.591Z,29.80
2018-07-26T22:38:16.840Z,29.80
2018-07-26T22:40:45.068Z,29.80
2018-07-26T22:43:13.274Z,29.80
2018-07-26T22:48:09.437Z,29.80
2018-07-26T22:50:37.731Z,29.70
2018-07-26T22:53:06.036Z,29.70
2018-07-26T22:55:34.237Z,29.70
2018-07-26T22:58:02.482Z,29.70
2018-07-26T23:00:30.762Z,29.60
2018-07-26T23:02:59.018Z,29.60
2018-07-26T23:05:27.723Z,29.50
2018-07-26T23:07:55.986Z,29.50
2018-07-26T23:10:24.228Z,29.50
2018-07-26T23:12:52.513Z,29.40
2018-07-26T23:15:20.809Z,29.40
2018-07-26T23:20:17.010Z,29.40
2018-07-26T23:22:45.248Z,29.40
2018-07-26T23:25:13.474Z,29.40
2018-07-26T23:27:41.732Z,29.30
2018-07-26T23:30:11.882Z,29.30
2018-07-26T23:32:40.750Z,29.30
2018-07-26T23:35:09.574Z,29.20
2018-07-26T23:37:37.894Z,29.20
2018-07-26T23:40:07.384Z,29.20
2018-07-26T23:42:35.623Z,29.10
2018-07-26T23:45:04.248Z,29.10
2018-07-26T23:47:32.470Z,29.10
2018-07-26T23:50:00.693Z,29.10
2018-07-26T23:52:29.219Z,29.10
2018-07-26T23:54:57.455Z,29.00
2018-07-26T23:57:25.695Z,29.00
2018-07-26T23:59:53.934Z,29.00
